Time;durP1;ratioP1;P1;durP2;ratioP2;P2;SDS_P1;SDS_P2;PMS_P1;PMS_P2;Temp;Humidity;BMP_temperature;BMP_pressure;BME280_temperature;BME280_humidity;BME280_pressure;Samples;Min_cycle;Max_cycle;Signal;HPM_P1;HPM_P2
2023/09/17 00:01:50;;;;;;;20.77;18.97;;;16.20;99.90;;;;;;5049556;28;20576;-61
2023/09/17 00:04:18;;;;;;;20.40;18.90;;;16.20;99.90;;;;;;5061358;28;20497;-61
2023/09/17 00:06:46;;;;;;;19.60;18.00;;;16.20;99.90;;;;;;5060304;28;20610;-61
2023/09/17 00:09:14;;;;;;;20.30;18.60;;;16.10;99.90;;;;;;5060188;28;21188;-61
2023/09/17 00:11:42;;;;;;;20.70;19.00;;;16.10;99.90;;;;;;5062312;28;20489;-61
2023/09/17 00:14:10;;;;;;;21.17;19.50;;;16.10;99.90;;;;;;5063233;28;20601;-61
2023/09/17 00:16:39;;;;;;;20.80;19.20;;;16.10;99.90;;;;;;5060665;28;20914;-61
2023/09/17 00:19:08;;;;;;;21.13;19.43;;;16.00;99.90;;;;;;5062928;28;20579;-61
2023/09/17 00:21:36;;;;;;;20.67;18.93;;;16.00;99.90;;;;;;5057012;28;20487;-61
2023/09/17 00:24:05;;;;;;;19.90;18.30;;;15.90;99.90;;;;;;5049482;28;20488;-61
2023/09/17 00:26:33;;;;;;;20.33;18.53;;;15.90;99.90;;;;;;5058491;28;20668;-61
2023/09/17 00:29:01;;;;;;;18.80;17.30;;;15.90;99.90;;;;;;5054183;28;20565;-60
2023/09/17 00:31:29;;;;;;;19.60;18.03;;;15.90;99.90;;;;;;5052991;28;20486;-61
2023/09/17 00:33:57;;;;;;;19.90;18.30;;;15.90;99.90;;;;;;5061945;28;20957;-61
2023/09/17 00:36:27;;;;;;;19.63;18.03;;;15.80;99.90;;;;;;5064177;28;20606;-61
2023/09/17 00:38:55;;;;;;;19.77;18.07;;;15.80;99.90;;;;;;5054431;28;20516;-61
2023/09/17 00:41:23;;;;;;;21.13;19.40;;;15.80;99.90;;;;;;5052075;28;20495;-61
2023/09/17 00:43:51;;;;;;;19.60;18.00;;;15.70;99.90;;;;;;5061326;28;20497;-60
2023/09/17 00:46:20;;;;;;;20.17;18.57;;;15.70;99.90;;;;;;5064084;28;20488;-61
2023/09/17 00:48:48;;;;;;;21.90;20.10;;;15.70;99.90;;;;;;5057174;28;20589;-60
2023/09/17 00:51:16;;;;;;;20.07;18.57;;;15.70;99.90;;;;;;5053767;28;20492;-61
2023/09/17 00:53:46;;;;;;;19.83;18.23;;;15.70;99.90;;;;;;5052707;28;20877;-60
2023/09/17 00:56:15;;;;;;;20.10;18.40;;;15.60;99.90;;;;;;5054934;28;20516;-59
2023/09/17 00:58:45;;;;;;;20.07;18.47;;;15.60;99.90;;;;;;5053707;28;20489;-61
2023/09/17 01:01:13;;;;;;;20.77;19.13;;;15.60;99.90;;;;;;5052169;28;20503;-60
2023/09/17 01:03:41;;;;;;;20.90;19.20;;;15.60;99.90;;;;;;5059214;28;20538;-61
2023/09/17 01:06:12;;;;;;;20.27;18.67;;;15.50;99.90;;;;;;5059502;28;20490;-61
2023/09/17 01:08:40;;;;;;;21.00;19.40;;;15.50;99.90;;;;;;5061511;28;20776;-61
2023/09/17 01:11:11;;;;;;;22.10;20.30;;;15.50;99.90;;;;;;5055162;28;20481;-61
2023/09/17 01:13:51;;;;;;;20.73;19.10;;;15.50;99.90;;;;;;5062306;28;20565;-60
2023/09/17 01:16:21;;;;;;;20.83;18.97;;;15.40;99.90;;;;;;5058331;28;21063;-61
2023/09/17 01:18:50;;;;;;;20.67;19.07;;;15.40;99.90;;;;;;5063913;28;20831;-61
2023/09/17 01:21:26;;;;;;;19.80;18.30;;;15.40;99.90;;;;;;5056415;28;20573;-61
2023/09/17 01:24:05;;;;;;;21.97;20.17;;;15.30;99.90;;;;;;5057280;28;20580;-61
2023/09/17 01:26:36;;;;;;;21.43;19.83;;;15.30;99.90;;;;;;5058198;28;20514;-61
2023/09/17 01:29:05;;;;;;;21.03;19.33;;;15.30;99.90;;;;;;5064854;28;20489;-61
2023/09/17 01:31:34;;;;;;;20.30;18.50;;;15.30;99.90;;;;;;5055653;28;20488;-61
2023/09/17 01:34:02;;;;;;;21.60;19.70;;;15.20;99.90;;;;;;5058993;28;20473;-61
2023/09/17 01:36:39;;;;;;;20.73;19.03;;;15.20;99.90;;;;;;5057083;28;20627;-61
2023/09/17 01:39:18;;;;;;;21.17;19.47;;;15.20;99.90;;;;;;5056699;28;20639;-61
2023/09/17 01:41:46;;;;;;;21.20;19.40;;;15.10;99.90;;;;;;5053333;28;20489;-60
2023/09/17 01:44:18;;;;;;;20.20;18.50;;;15.10;99.90;;;;;;5063062;28;20557;-59
2023/09/17 01:46:46;;;;;;;20.07;18.47;;;15.10;99.90;;;;;;5059672;28;20493;-59
2023/09/17 01:49:16;;;;;;;20.57;19.03;;;15.10;99.90;;;;;;5057128;28;21011;-59
2023/09/17 01:51:45;;;;;;;21.00;19.23;;;15.10;99.90;;;;;;5051177;28;20489;-60
2023/09/17 01:54:14;;;;;;;21.67;19.77;;;15.00;99.90;;;;;;5052149;28;20962;-61
2023/09/17 01:56:43;;;;;;;20.40;18.80;;;15.00;99.90;;;;;;5054609;28;20577;-61
2023/09/17 01:59:19;;;;;;;19.50;18.00;;;15.00;99.90;;;;;;5066879;27;20580;-59
2023/09/17 02:01:47;;;;;;;21.03;19.43;;;15.00;99.90;;;;;;5023476;28;20817;-61
2023/09/17 02:04:15;;;;;;;21.10;19.30;;;15.00;99.90;;;;;;5019016;28;20532;-60
2023/09/17 02:06:43;;;;;;;20.27;18.67;;;15.00;99.90;;;;;;5024717;28;20498;-60
2023/09/17 02:09:12;;;;;;;20.40;18.90;;;15.00;99.90;;;;;;5012684;28;20546;-58
2023/09/17 02:11:40;;;;;;;20.03;18.33;;;15.00;99.90;;;;;;5018143;28;20519;-60
2023/09/17 02:14:08;;;;;;;19.13;17.73;;;14.90;99.90;;;;;;5024884;28;21037;-60
2023/09/17 02:16:38;;;;;;;20.23;18.63;;;15.00;99.90;;;;;;5027300;28;20931;-59
2023/09/17 02:19:06;;;;;;;18.70;17.30;;;14.90;99.90;;;;;;5024596;28;20504;-60
2023/09/17 02:21:34;;;;;;;20.40;18.73;;;14.90;99.90;;;;;;5026014;28;20517;-60
2023/09/17 02:24:02;;;;;;;19.20;17.70;;;14.90;99.90;;;;;;5048201;28;20978;-60
2023/09/17 02:26:30;;;;;;;18.97;17.37;;;14.80;99.90;;;;;;5047614;28;20566;-60
2023/09/17 02:28:58;;;;;;;20.87;19.27;;;14.80;99.90;;;;;;5047316;28;20465;-61
2023/09/17 02:31:27;;;;;;;21.00;19.10;;;14.80;99.90;;;;;;5048867;28;20998;-61
2023/09/17 02:33:57;;;;;;;20.23;18.33;;;14.80;99.90;;;;;;5043617;28;20469;-61
2023/09/17 02:36:25;;;;;;;19.30;17.50;;;14.80;99.90;;;;;;5049312;28;20492;-60
2023/09/17 02:38:53;;;;;;;20.10;18.37;;;14.70;99.90;;;;;;5049001;28;20555;-60
2023/09/17 02:41:21;;;;;;;18.20;16.90;;;14.70;99.90;;;;;;5046244;28;20489;-60
2023/09/17 02:43:49;;;;;;;19.90;17.87;;;14.70;99.90;;;;;;5047604;28;21280;-60
2023/09/17 02:46:22;;;;;;;19.33;17.83;;;14.70;99.90;;;;;;5048878;28;20525;-60
2023/09/17 02:48:53;;;;;;;18.87;17.40;;;14.70;99.90;;;;;;5048945;28;20892;-58
2023/09/17 02:51:23;;;;;;;18.60;17.20;;;14.60;99.90;;;;;;5041439;28;20576;-59
2023/09/17 02:53:51;;;;;;;18.03;16.63;;;14.60;99.90;;;;;;5042938;28;20934;-61
2023/09/17 02:56:20;;;;;;;17.67;16.20;;;14.60;99.90;;;;;;5042968;28;20995;-60
2023/09/17 02:58:48;;;;;;;17.53;16.00;;;14.60;99.90;;;;;;5044763;28;20491;-60
2023/09/17 03:01:17;;;;;;;17.57;16.27;;;14.60;99.90;;;;;;5042372;28;20481;-60
2023/09/17 03:03:46;;;;;;;17.70;16.00;;;14.50;99.90;;;;;;5039590;28;20915;-60
2023/09/17 03:06:14;;;;;;;17.33;15.83;;;14.50;99.90;;;;;;5047029;28;20860;-60
2023/09/17 03:08:44;;;;;;;17.37;16.07;;;14.50;99.90;;;;;;5046830;28;20905;-60
2023/09/17 03:11:13;;;;;;;16.63;15.17;;;14.50;99.90;;;;;;5024496;28;20522;-60
2023/09/17 03:13:42;;;;;;;16.30;15.00;;;14.50;99.90;;;;;;5029590;28;20550;-60
2023/09/17 03:16:15;;;;;;;17.77;16.27;;;14.50;99.90;;;;;;5031074;28;20489;-60
2023/09/17 03:18:43;;;;;;;17.17;15.87;;;14.50;99.90;;;;;;5031202;28;20590;-59
2023/09/17 03:21:12;;;;;;;16.73;15.37;;;14.50;99.90;;;;;;5029349;28;20483;-60
2023/09/17 03:23:40;;;;;;;17.50;16.10;;;14.40;99.90;;;;;;5032237;28;20475;-60
2023/09/17 03:26:10;;;;;;;16.50;15.20;;;14.40;99.90;;;;;;5027151;28;20525;-60
2023/09/17 03:28:38;;;;;;;16.33;15.03;;;14.40;99.90;;;;;;5026928;28;20523;-61
2023/09/17 03:31:07;;;;;;;16.67;15.37;;;14.40;99.90;;;;;;5023600;28;20595;-59
2023/09/17 03:33:35;;;;;;;16.77;15.47;;;14.40;99.90;;;;;;5027058;28;21274;-60
2023/09/17 03:36:03;;;;;;;17.10;15.80;;;14.40;99.90;;;;;;5031929;28;20490;-60
2023/09/17 03:38:33;;;;;;;16.53;15.23;;;14.40;99.90;;;;;;5033146;28;21019;-60
2023/09/17 03:41:01;;;;;;;16.43;15.03;;;14.40;99.90;;;;;;5025179;28;20562;-60
2023/09/17 03:43:30;;;;;;;15.73;14.43;;;14.40;99.90;;;;;;5028965;28;20529;-60
2023/09/17 03:45:58;;;;;;;16.80;15.50;;;14.40;99.90;;;;;;5028932;28;20824;-59
2023/09/17 03:48:26;;;;;;;16.67;15.37;;;14.30;99.90;;;;;;5026707;28;20576;-58
2023/09/17 03:50:55;;;;;;;16.47;15.17;;;14.30;99.90;;;;;;5025754;28;20618;-61
2023/09/17 03:53:23;;;;;;;18.17;16.67;;;14.30;99.90;;;;;;5027222;28;20483;-60
2023/09/17 03:55:51;;;;;;;16.10;14.80;;;14.30;99.90;;;;;;5026938;28;20517;-60
2023/09/17 03:58:21;;;;;;;16.03;14.73;;;14.30;99.90;;;;;;5030481;28;20641;-61
2023/09/17 04:00:50;;;;;;;15.67;14.40;;;14.30;99.90;;;;;;5028423;28;20951;-60
2023/09/17 04:03:19;;;;;;;15.50;14.30;;;14.20;99.90;;;;;;5030263;28;20553;-60
2023/09/17 04:05:48;;;;;;;15.73;14.50;;;14.20;99.90;;;;;;5025643;28;20583;-61
2023/09/17 04:08:16;;;;;;;16.57;15.20;;;14.20;99.90;;;;;;5034924;28;20482;-60
2023/09/17 04:10:44;;;;;;;16.53;15.23;;;14.20;99.90;;;;;;5033736;28;21075;-57
2023/09/17 04:13:12;;;;;;;16.50;15.00;;;14.20;99.90;;;;;;5033539;28;20477;-61
2023/09/17 04:15:40;;;;;;;16.17;14.87;;;14.10;99.90;;;;;;5035283;28;20491;-61
2023/09/17 04:18:10;;;;;;;16.10;14.80;;;14.10;99.90;;;;;;5031777;28;20476;-59
2023/09/17 04:20:38;;;;;;;16.23;14.97;;;14.10;99.90;;;;;;5023421;28;20486;-60
2023/09/17 04:23:06;;;;;;;16.00;14.80;;;14.10;99.90;;;;;;5032470;28;20498;-60
2023/09/17 04:25:36;;;;;;;16.63;15.37;;;14.10;99.90;;;;;;5032535;28;21969;-58
2023/09/17 04:28:04;;;;;;;16.17;14.87;;;14.10;99.90;;;;;;5029749;28;20471;-60
2023/09/17 04:30:33;;;;;;;15.80;14.60;;;14.00;99.90;;;;;;5028231;28;20472;-60
2023/09/17 04:33:01;;;;;;;15.60;14.40;;;14.00;99.90;;;;;;5023930;28;21214;-60
2023/09/17 04:35:31;;;;;;;16.23;14.93;;;14.00;99.90;;;;;;5029934;28;20592;-61
2023/09/17 04:37:59;;;;;;;16.80;15.30;;;14.00;99.90;;;;;;5024969;28;20474;-60
2023/09/17 04:40:28;;;;;;;15.93;14.70;;;13.90;99.90;;;;;;5029928;28;20618;-60
2023/09/17 04:42:56;;;;;;;16.00;14.70;;;13.90;99.90;;;;;;5031398;28;20502;-60
2023/09/17 04:45:35;;;;;;;15.90;14.70;;;13.90;99.90;;;;;;5031043;28;20589;-59
2023/09/17 04:48:04;;;;;;;15.90;14.60;;;13.90;99.90;;;;;;5027414;28;21018;-61
2023/09/17 04:50:34;;;;;;;16.27;14.83;;;13.90;99.90;;;;;;5025407;28;20475;-61
2023/09/17 04:53:02;;;;;;;15.87;14.53;;;13.90;99.90;;;;;;5026117;28;20489;-61
2023/09/17 04:55:30;;;;;;;15.20;13.97;;;13.90;99.90;;;;;;5022410;28;21148;-60
2023/09/17 04:57:58;;;;;;;15.87;14.57;;;13.90;99.90;;;;;;5030209;28;20498;-58
2023/09/17 05:00:26;;;;;;;15.67;14.50;;;13.80;99.90;;;;;;5026837;28;20487;-61
2023/09/17 05:02:55;;;;;;;15.27;14.07;;;13.80;99.90;;;;;;5022017;28;20486;-60
2023/09/17 05:05:23;;;;;;;16.07;14.77;;;13.80;99.90;;;;;;5022588;28;20494;-60
2023/09/17 05:07:55;;;;;;;16.33;15.03;;;13.80;99.90;;;;;;5034185;28;20574;-60
2023/09/17 05:10:23;;;;;;;15.50;14.20;;;13.80;99.90;;;;;;5023223;28;20566;-59
2023/09/17 05:12:51;;;;;;;15.93;14.73;;;13.80;99.90;;;;;;5018747;28;20487;-59
2023/09/17 05:15:19;;;;;;;16.77;15.47;;;13.80;99.90;;;;;;5021907;28;20495;-60
2023/09/17 05:17:47;;;;;;;15.50;14.30;;;13.80;99.90;;;;;;5020138;28;20472;-59
2023/09/17 05:20:18;;;;;;;15.40;14.20;;;13.80;99.90;;;;;;5023095;28;20486;-60
2023/09/17 05:22:46;;;;;;;16.13;14.50;;;13.80;99.90;;;;;;5016958;28;20875;-60
2023/09/17 05:25:15;;;;;;;15.13;13.87;;;13.80;99.90;;;;;;5021696;28;20591;-60
2023/09/17 05:27:43;;;;;;;15.10;13.90;;;13.80;99.90;;;;;;5029364;28;20475;-60
2023/09/17 05:30:12;;;;;;;15.20;14.00;;;13.70;99.90;;;;;;5024038;28;20474;-60
2023/09/17 05:32:40;;;;;;;16.60;15.30;;;13.70;99.90;;;;;;5021811;28;20830;-60
2023/09/17 05:35:08;;;;;;;16.40;15.10;;;13.80;99.90;;;;;;5032220;28;20490;-60
2023/09/17 05:37:36;;;;;;;16.40;15.10;;;13.80;99.90;;;;;;5023134;28;20481;-63
2023/09/17 05:40:06;;;;;;;16.00;14.80;;;13.80;99.90;;;;;;5030916;28;20554;-63
2023/09/17 05:42:36;;;;;;;16.07;14.80;;;13.80;99.90;;;;;;5024489;28;20501;-63
2023/09/17 05:45:04;;;;;;;16.10;14.63;;;13.80;99.90;;;;;;5031242;28;20654;-64
2023/09/17 05:47:33;;;;;;;15.73;14.50;;;13.80;99.90;;;;;;5026958;28;20475;-62
2023/09/17 05:50:01;;;;;;;17.30;15.80;;;13.80;99.90;;;;;;5031183;28;20463;-62
2023/09/17 05:52:29;;;;;;;15.30;14.10;;;13.90;99.90;;;;;;5025276;28;20495;-62
2023/09/17 05:54:57;;;;;;;16.67;15.37;;;13.90;99.90;;;;;;5022300;28;20779;-64
2023/09/17 05:57:25;;;;;;;16.23;14.93;;;13.90;99.90;;;;;;5026403;28;20989;-62
2023/09/17 05:59:54;;;;;;;17.10;15.33;;;14.00;99.90;;;;;;5030407;28;20501;-63
2023/09/17 06:02:22;;;;;;;16.97;15.57;;;14.00;99.90;;;;;;5025813;28;20494;-64
2023/09/17 06:04:52;;;;;;;14.97;13.87;;;14.00;99.90;;;;;;5020269;28;20470;-63
2023/09/17 06:07:21;;;;;;;16.13;14.83;;;14.00;99.90;;;;;;5023934;28;20481;-64
2023/09/17 06:09:49;;;;;;;15.30;14.10;;;14.10;99.90;;;;;;5026409;28;20465;-63
2023/09/17 06:12:17;;;;;;;16.50;15.20;;;14.10;99.90;;;;;;5031772;28;20517;-63
2023/09/17 06:14:45;;;;;;;15.30;14.10;;;14.20;99.90;;;;;;5032231;28;20899;-63
2023/09/17 06:17:15;;;;;;;15.63;14.23;;;14.20;99.90;;;;;;5026747;28;20475;-62
2023/09/17 06:19:43;;;;;;;16.33;15.03;;;14.30;99.90;;;;;;5030472;28;20495;-64
2023/09/17 06:22:12;;;;;;;15.90;14.60;;;14.30;99.90;;;;;;5029145;28;20586;-63
2023/09/17 06:24:40;;;;;;;15.87;14.60;;;14.40;99.90;;;;;;5032237;28;20533;-63
2023/09/17 06:27:08;;;;;;;17.80;16.40;;;14.50;99.90;;;;;;5027460;28;20540;-62
2023/09/17 06:29:36;;;;;;;18.60;17.10;;;14.60;99.90;;;;;;5031610;28;20520;-62
2023/09/17 06:32:04;;;;;;;17.00;15.70;;;14.80;99.90;;;;;;5024647;28;20497;-63
2023/09/17 06:34:35;;;;;;;16.30;15.10;;;15.10;99.90;;;;;;5025541;28;20966;-64
2023/09/17 06:37:04;;;;;;;17.20;15.57;;;15.30;99.90;;;;;;5022427;28;20506;-63
2023/09/17 06:39:32;;;;;;;15.47;14.23;;;15.50;99.90;;;;;;5030994;28;20989;-64
2023/09/17 06:42:00;;;;;;;17.53;16.03;;;15.60;99.90;;;;;;5025032;28;20751;-63
2023/09/17 06:44:28;;;;;;;15.70;14.40;;;15.70;99.90;;;;;;5021039;28;20580;-64
2023/09/17 06:46:56;;;;;;;16.40;15.00;;;15.60;99.90;;;;;;5030685;28;20493;-64
2023/09/17 06:49:24;;;;;;;17.37;15.90;;;15.70;99.90;;;;;;5030261;28;20493;-63
2023/09/17 06:51:54;;;;;;;17.77;16.27;;;15.70;99.90;;;;;;5026366;28;20490;-62
2023/09/17 06:54:22;;;;;;;16.33;14.90;;;15.80;99.90;;;;;;5031819;28;20959;-61
2023/09/17 06:56:51;;;;;;;16.67;15.13;;;15.80;99.90;;;;;;5029813;28;20582;-61
2023/09/17 06:59:19;;;;;;;15.87;14.57;;;15.80;99.90;;;;;;5031146;28;20557;-62
2023/09/17 07:01:47;;;;;;;15.27;13.97;;;15.90;99.90;;;;;;5016486;28;20579;-60
2023/09/17 07:04:15;;;;;;;15.17;13.97;;;16.00;99.90;;;;;;5021453;28;20609;-62
2023/09/17 07:06:43;;;;;;;15.80;14.37;;;16.00;99.90;;;;;;5022272;28;20497;-61
2023/09/17 07:09:13;;;;;;;15.40;14.20;;;16.10;99.90;;;;;;5032043;28;20479;-60
2023/09/17 07:11:41;;;;;;;14.90;13.70;;;16.10;99.90;;;;;;5009163;28;21123;-62
2023/09/17 07:14:10;;;;;;;15.67;14.17;;;16.10;99.90;;;;;;5036431;28;20466;-62
2023/09/17 07:16:39;;;;;;;15.30;14.10;;;16.20;99.90;;;;;;5030459;28;20975;-62
2023/09/17 07:19:07;;;;;;;14.70;13.53;;;16.30;99.90;;;;;;5026644;28;20493;-62
2023/09/17 07:21:35;;;;;;;15.03;13.53;;;16.30;99.90;;;;;;5020306;28;20562;-62
2023/09/17 07:24:03;;;;;;;14.87;13.57;;;16.40;99.90;;;;;;5032846;28;20546;-60
2023/09/17 07:26:33;;;;;;;15.30;14.00;;;16.50;99.90;;;;;;5024608;28;20491;-62
2023/09/17 07:29:03;;;;;;;13.80;12.70;;;16.60;99.90;;;;;;5025114;28;20474;-59
2023/09/17 07:31:31;;;;;;;12.80;11.80;;;16.60;99.90;;;;;;5013383;28;20486;-61
2023/09/17 07:33:59;;;;;;;13.30;12.30;;;16.70;99.90;;;;;;5025408;28;21009;-61
2023/09/17 07:36:27;;;;;;;12.30;11.30;;;16.90;99.90;;;;;;5021525;28;21097;-62
2023/09/17 07:38:55;;;;;;;13.33;12.23;;;16.90;99.90;;;;;;5022733;28;20532;-62
2023/09/17 07:41:23;;;;;;;13.23;12.10;;;17.10;99.90;;;;;;5019304;28;21044;-62
2023/09/17 07:43:53;;;;;;;13.80;12.70;;;17.20;99.90;;;;;;5029543;28;21020;-62
2023/09/17 07:46:21;;;;;;;12.43;11.47;;;17.30;99.90;;;;;;5024372;28;21641;-61
2023/09/17 07:48:50;;;;;;;11.80;10.90;;;17.40;99.90;;;;;;5033079;28;20521;-62
2023/09/17 07:51:18;;;;;;;12.20;11.30;;;17.60;99.90;;;;;;5019158;28;20514;-62
2023/09/17 07:53:46;;;;;;;12.27;11.27;;;17.70;99.90;;;;;;5027615;28;21193;-62
2023/09/17 07:56:14;;;;;;;11.80;10.80;;;17.80;99.90;;;;;;5026381;28;20644;-60
2023/09/17 07:58:46;;;;;;;11.23;10.37;;;17.90;99.90;;;;;;5030706;28;20485;-61
2023/09/17 08:01:15;;;;;;;11.23;10.40;;;18.00;99.90;;;;;;5025959;28;20488;-61
2023/09/17 08:03:43;;;;;;;12.00;10.90;;;18.10;99.90;;;;;;5031486;28;20481;-61
2023/09/17 08:06:12;;;;;;;11.27;10.47;;;18.20;99.90;;;;;;5025286;28;21140;-61
2023/09/17 08:08:42;;;;;;;11.47;10.43;;;18.20;99.90;;;;;;5035647;28;20486;-61
2023/09/17 08:11:10;;;;;;;11.00;10.20;;;18.40;99.90;;;;;;5026815;28;20837;-61
2023/09/17 08:13:38;;;;;;;11.00;10.20;;;18.40;99.90;;;;;;5033250;28;20901;-61
2023/09/17 08:16:06;;;;;;;11.70;10.80;;;18.50;99.90;;;;;;5031317;28;20486;-61
2023/09/17 08:18:36;;;;;;;10.13;9.23;;;18.60;99.90;;;;;;5036736;28;20478;-61
2023/09/17 08:21:04;;;;;;;11.17;9.60;;;18.60;99.90;;;;;;5027119;28;20495;-61
2023/09/17 08:23:32;;;;;;;10.83;10.03;;;18.70;99.90;;;;;;5034606;28;20480;-61
2023/09/17 08:26:00;;;;;;;10.87;9.97;;;18.80;99.90;;;;;;5025527;28;20581;-66
2023/09/17 08:28:28;;;;;;;10.30;9.50;;;18.80;99.90;;;;;;5028312;28;20475;-66
2023/09/17 08:30:56;;;;;;;9.87;9.07;;;18.90;99.90;;;;;;5021986;28;20488;-66
2023/09/17 08:33:24;;;;;;;9.93;9.17;;;18.90;99.90;;;;;;5032233;28;20582;-66
2023/09/17 08:35:54;;;;;;;10.77;9.87;;;19.00;99.90;;;;;;5019809;28;20573;-66
2023/09/17 08:38:22;;;;;;;9.60;8.80;;;19.10;99.90;;;;;;5030206;28;20563;-66
2023/09/17 08:40:51;;;;;;;9.77;9.07;;;19.20;99.90;;;;;;5025987;28;21410;-66
2023/09/17 08:43:19;;;;;;;10.03;9.23;;;19.30;99.90;;;;;;5022653;28;20463;-66
2023/09/17 08:45:48;;;;;;;9.70;8.83;;;19.40;99.90;;;;;;5030059;28;20490;-65
2023/09/17 08:48:17;;;;;;;10.37;9.40;;;19.40;99.90;;;;;;5033054;28;20479;-66
2023/09/17 08:50:50;;;;;;;9.30;8.70;;;19.50;99.90;;;;;;5031679;28;20467;-65
2023/09/17 08:53:24;;;;;;;8.93;8.33;;;19.60;99.90;;;;;;5033569;28;20632;-64
2023/09/17 08:55:56;;;;;;;9.50;8.80;;;19.70;99.90;;;;;;5027568;28;20487;-65
2023/09/17 08:58:30;;;;;;;9.77;8.97;;;19.70;99.90;;;;;;5034704;28;20475;-66
2023/09/17 09:01:03;;;;;;;9.40;8.70;;;19.80;99.90;;;;;;5027051;28;20621;-67
2023/09/17 09:03:33;;;;;;;8.80;8.10;;;19.90;99.90;;;;;;5027878;28;20797;-64
2023/09/17 09:06:03;;;;;;;8.30;7.70;;;19.90;99.90;;;;;;5023389;28;20557;-65
2023/09/17 09:08:34;;;;;;;8.63;8.03;;;20.00;99.90;;;;;;5030563;28;20484;-65
2023/09/17 09:11:02;;;;;;;8.60;8.00;;;20.10;99.90;;;;;;5012890;28;20493;-66
2023/09/17 09:13:30;;;;;;;9.03;8.43;;;20.20;99.90;;;;;;5033602;28;20463;-65
2023/09/17 09:16:00;;;;;;;8.97;8.23;;;20.20;99.90;;;;;;5029217;28;20982;-65
2023/09/17 09:18:29;;;;;;;9.63;8.83;;;20.30;99.90;;;;;;5033118;28;20894;-65
2023/09/17 09:20:57;;;;;;;8.40;7.80;;;20.30;99.90;;;;;;5018748;28;20548;-62
2023/09/17 09:23:25;;;;;;;8.97;8.27;;;20.40;99.90;;;;;;5023801;28;20582;-59
2023/09/17 09:25:55;;;;;;;8.67;8.00;;;20.40;99.90;;;;;;5020953;28;20500;-60
2023/09/17 09:28:23;;;;;;;8.80;8.10;;;20.50;99.90;;;;;;5032166;28;20514;-61
2023/09/17 09:30:51;;;;;;;9.17;8.37;;;20.60;99.90;;;;;;5028670;28;20477;-62
2023/09/17 09:33:21;;;;;;;9.00;8.30;;;20.70;99.90;;;;;;5032879;28;20503;-61
2023/09/17 09:35:50;;;;;;;7.67;7.10;;;20.70;99.90;;;;;;5026308;28;20501;-62
2023/09/17 09:38:19;;;;;;;7.87;7.27;;;20.80;99.90;;;;;;5033378;28;20806;-62
2023/09/17 09:40:47;;;;;;;8.20;7.60;;;20.90;99.90;;;;;;5030497;28;20569;-60
2023/09/17 09:43:30;;;;;;;8.97;8.27;;;21.00;99.90;;;;;;5027038;28;20495;-62
2023/09/17 09:46:04;;;;;;;8.20;7.60;;;21.10;99.90;;;;;;5028569;28;20569;-62
2023/09/17 09:48:32;;;;;;;9.20;8.60;;;21.10;99.90;;;;;;5034900;28;20485;-62
2023/09/17 09:51:00;;;;;;;7.80;7.20;;;21.10;99.90;;;;;;5024372;28;21020;-62
2023/09/17 09:53:28;;;;;;;9.03;8.33;;;21.20;99.90;;;;;;5030690;28;20717;-62
2023/09/17 09:55:57;;;;;;;8.43;7.83;;;21.20;99.90;;;;;;5023476;28;20578;-61
2023/09/17 09:58:26;;;;;;;7.80;7.30;;;21.20;99.90;;;;;;5026798;28;20478;-62
2023/09/17 10:00:55;;;;;;;8.10;7.43;;;21.20;99.90;;;;;;5025495;28;20553;-62
2023/09/17 10:03:24;;;;;;;7.90;7.30;;;21.30;99.90;;;;;;5028868;28;20844;-61
2023/09/17 10:05:53;;;;;;;8.37;7.77;;;21.30;99.90;;;;;;5029049;28;20929;-60
2023/09/17 10:08:22;;;;;;;8.47;7.87;;;21.30;99.90;;;;;;5034534;28;20533;-60
2023/09/17 10:10:51;;;;;;;8.57;7.97;;;21.30;99.90;;;;;;5025636;28;20466;-60
2023/09/17 10:13:19;;;;;;;8.20;7.50;;;21.40;99.90;;;;;;5031405;28;20471;-60
2023/09/17 10:15:48;;;;;;;8.20;7.60;;;21.50;99.90;;;;;;5026693;28;21000;-59
2023/09/17 10:18:19;;;;;;;8.37;7.77;;;21.50;99.90;;;;;;5034672;28;20475;-59
2023/09/17 10:20:51;;;;;;;7.70;7.20;;;21.60;99.90;;;;;;5026570;28;20477;-59
2023/09/17 10:23:20;;;;;;;8.40;7.67;;;21.60;99.90;;;;;;5032463;28;20607;-60
2023/09/17 10:25:49;;;;;;;8.23;7.53;;;21.70;99.90;;;;;;5031478;28;20825;-59
2023/09/17 10:28:19;;;;;;;7.30;6.80;;;21.80;99.90;;;;;;5036108;28;20554;-60
2023/09/17 10:30:51;;;;;;;7.23;6.63;;;21.90;99.90;;;;;;5030056;28;20470;-59
2023/09/17 10:33:22;;;;;;;8.13;7.53;;;22.00;99.90;;;;;;5035785;28;20518;-60
2023/09/17 10:35:52;;;;;;;7.50;6.93;;;22.10;99.90;;;;;;5034293;28;21075;-59
2023/09/17 10:38:22;;;;;;;7.63;7.03;;;22.30;99.90;;;;;;5030884;28;20462;-60
2023/09/17 10:40:51;;;;;;;7.77;7.03;;;22.40;99.90;;;;;;5025860;28;21262;-60
2023/09/17 10:43:21;;;;;;;6.73;6.23;;;22.60;99.90;;;;;;5032962;28;20497;-60
2023/09/17 10:45:52;;;;;;;6.57;6.17;;;22.80;99.90;;;;;;5027805;28;20909;-61
2023/09/17 10:48:25;;;;;;;6.90;6.40;;;23.00;99.90;;;;;;5033935;28;20521;-63
2023/09/17 10:50:53;;;;;;;6.60;6.20;;;23.20;99.90;;;;;;5031750;28;20555;-60
2023/09/17 10:53:23;;;;;;;6.50;6.10;;;23.30;99.90;;;;;;5035522;28;20968;-63
2023/09/17 10:55:57;;;;;;;6.50;6.00;;;23.40;99.90;;;;;;5028816;28;20549;-63
2023/09/17 10:58:31;;;;;;;7.03;6.53;;;23.50;99.90;;;;;;5036081;28;20469;-65
2023/09/17 11:01:01;;;;;;;7.23;6.60;;;23.70;99.90;;;;;;5029716;28;20500;-65
2023/09/17 11:03:34;;;;;;;7.40;6.00;;;23.80;99.90;;;;;;5034191;28;20929;-64
2023/09/17 11:06:04;;;;;;;6.23;5.83;;;23.80;99.90;;;;;;5027746;28;20601;-66
2023/09/17 11:08:34;;;;;;;6.27;5.77;;;23.90;99.90;;;;;;5037547;28;20597;-63
2023/09/17 11:11:03;;;;;;;6.03;5.63;;;24.00;99.90;;;;;;5031468;28;20661;-61
2023/09/17 11:13:31;;;;;;;6.30;5.77;;;24.00;99.90;;;;;;5034535;28;20955;-61
2023/09/17 11:16:01;;;;;;;6.17;5.77;;;24.00;99.90;;;;;;5026679;28;20502;-60
2023/09/17 11:18:30;;;;;;;5.70;5.30;;;23.90;99.90;;;;;;5033156;28;20538;-60
2023/09/17 11:21:07;;;;;;;6.70;6.20;;;23.90;99.90;;;;;;5028047;28;20482;-63
2023/09/17 11:23:46;;;;;;;6.67;6.17;;;24.00;99.90;;;;;;5031682;28;21044;-63
2023/09/17 11:26:15;;;;;;;6.03;5.63;;;24.10;99.90;;;;;;5032595;28;20564;-62
2023/09/17 11:28:43;;;;;;;5.97;5.57;;;24.30;99.90;;;;;;5035115;28;20475;-63
2023/09/17 11:31:14;;;;;;;5.70;5.20;;;24.40;99.90;;;;;;5020610;28;20988;-64
2023/09/17 11:33:45;;;;;;;6.00;5.60;;;24.60;99.90;;;;;;5033537;28;20525;-61
2023/09/17 11:36:13;;;;;;;5.57;5.27;;;24.80;99.90;;;;;;5026435;28;20574;-61
2023/09/17 11:38:46;;;;;;;6.37;5.80;;;25.00;99.90;;;;;;5034786;28;20970;-61
2023/09/17 11:41:16;;;;;;;6.13;5.73;;;25.10;99.90;;;;;;5030955;28;20517;-61
2023/09/17 11:43:46;;;;;;;5.27;4.87;;;25.20;99.90;;;;;;5029356;28;20498;-61
2023/09/17 11:46:15;;;;;;;5.77;5.37;;;25.30;99.90;;;;;;5033596;28;20490;-61
2023/09/17 11:48:45;;;;;;;6.23;5.77;;;25.30;99.90;;;;;;5031481;28;20555;-63
2023/09/17 11:51:22;;;;;;;5.80;5.33;;;25.40;99.90;;;;;;5029924;28;20602;-62
2023/09/17 11:53:56;;;;;;;5.37;4.93;;;25.50;99.90;;;;;;5032372;28;20989;-61
2023/09/17 11:56:25;;;;;;;6.73;6.27;;;25.60;99.90;;;;;;5023346;28;20806;-61
2023/09/17 11:59:04;;;;;;;5.83;5.37;;;25.80;99.90;;;;;;5025397;28;21019;-63
2023/09/17 12:01:35;;;;;;;5.90;5.40;;;25.90;99.90;;;;;;5024594;28;20586;-63
2023/09/17 12:04:07;;;;;;;5.93;5.30;;;25.90;99.90;;;;;;5024237;28;20498;-63
2023/09/17 12:06:37;;;;;;;5.80;5.40;;;25.80;99.90;;;;;;5021651;28;20491;-63
2023/09/17 12:09:15;;;;;;;6.13;5.63;;;25.70;99.90;;;;;;5025461;28;20463;-63
2023/09/17 12:11:45;;;;;;;6.47;5.97;;;25.60;99.90;;;;;;5021193;28;20565;-63
2023/09/17 12:14:13;;;;;;;6.20;5.73;;;25.50;99.90;;;;;;5031863;28;20483;-63
2023/09/17 12:16:41;;;;;;;6.83;6.33;;;25.50;99.90;;;;;;5026277;28;21176;-63
2023/09/17 12:19:11;;;;;;;6.30;5.67;;;25.30;99.90;;;;;;5027912;28;21072;-64
2023/09/17 12:21:47;;;;;;;6.83;6.33;;;25.20;99.90;;;;;;5029893;28;20493;-64
2023/09/17 12:24:25;;;;;;;6.27;5.87;;;25.20;99.90;;;;;;5023333;28;20553;-63
2023/09/17 12:27:19;;;;;;;6.10;5.60;;;25.20;99.90;;;;;;5026514;28;20508;-63
2023/09/17 12:29:47;;;;;;;6.50;5.90;;;25.20;99.90;;;;;;5020678;28;20565;-61
2023/09/17 12:32:19;;;;;;;6.40;5.90;;;25.40;99.90;;;;;;5015185;28;20585;-60
2023/09/17 12:34:50;;;;;;;6.70;6.20;;;25.70;99.90;;;;;;5026793;28;20487;-61
2023/09/17 12:37:19;;;;;;;6.20;5.80;;;26.10;99.90;;;;;;5027365;28;20473;-61
2023/09/17 12:39:49;;;;;;;6.10;5.60;;;26.40;99.90;;;;;;5024969;28;20999;-61
2023/09/17 12:42:17;;;;;;;6.30;5.80;;;26.60;99.90;;;;;;5014956;28;20498;-61
2023/09/17 12:44:45;;;;;;;6.20;5.70;;;26.60;99.90;;;;;;5022418;28;20496;-61